createdAt,value
2023-03-30T00:01:43.450Z,7.53
2023-03-30T00:04:46.605Z,7.53
2023-03-30T00:07:51.016Z,7.51
2023-03-30T00:11:00.808Z,7.50
2023-03-30T00:14:04.051Z,7.50
2023-03-30T00:17:08.579Z,7.49
2023-03-30T00:20:17.291Z,7.49
2023-03-30T00:23:20.696Z,7.48
2023-03-30T00:26:23.763Z,7.47
2023-03-30T00:29:26.952Z,7.47
2023-03-30T00:32:30.123Z,7.47
2023-03-30T00:35:33.439Z,7.46
2023-03-30T00:38:36.622Z,7.46
2023-03-30T00:41:40.315Z,7.45
2023-03-30T00:45:01.464Z,7.44
2023-03-30T00:48:04.688Z,7.44
2023-03-30T00:51:10.606Z,7.44
2023-03-30T00:54:18.977Z,7.43
2023-03-30T00:57:25.085Z,7.42
2023-03-30T01:00:28.532Z,7.40
2023-03-30T01:03:46.650Z,7.41
2023-03-30T01:06:52.209Z,7.39
2023-03-30T01:09:55.527Z,7.40
2023-03-30T01:12:59.052Z,7.39
2023-03-30T01:16:21.223Z,7.39
2023-03-30T01:19:53.547Z,7.40
2023-03-30T01:23:18.813Z,7.40
2023-03-30T01:26:43.073Z,7.41
2023-03-30T01:30:26.829Z,7.40
2023-03-30T01:33:47.448Z,7.41
2023-03-30T01:37:15.241Z,7.41
2023-03-30T01:40:44.054Z,7.42
2023-03-30T01:43:54.211Z,7.42
2023-03-30T01:47:07.270Z,7.42
2023-03-30T01:50:21.058Z,7.42
2023-03-30T01:53:53.299Z,7.41
2023-03-30T01:57:20.089Z,7.41
2023-03-30T02:00:25.400Z,7.41
2023-03-30T02:03:32.673Z,7.41
2023-03-30T02:06:44.279Z,7.41
2023-03-30T02:09:52.024Z,7.41
2023-03-30T02:12:58.795Z,7.41
2023-03-30T02:16:13.797Z,7.42
2023-03-30T02:19:20.715Z,7.41
2023-03-30T02:22:26.551Z,7.40
2023-03-30T02:25:29.688Z,7.40
2023-03-30T02:28:32.784Z,7.40
2023-03-30T02:31:37.145Z,7.41
2023-03-30T02:35:08.971Z,7.41
2023-03-30T02:38:36.582Z,7.42
2023-03-30T02:42:01.194Z,7.42
2023-03-30T02:45:13.507Z,7.41
2023-03-30T02:48:22.043Z,7.40
2023-03-30T02:51:34.675Z,7.41
2023-03-30T02:55:51.142Z,7.41
2023-03-30T02:59:04.639Z,7.38
2023-03-30T03:02:20.237Z,7.37
2023-03-30T03:05:27.030Z,7.38
2023-03-30T03:08:42.036Z,7.38
2023-03-30T03:11:46.781Z,7.38
2023-03-30T03:14:50.001Z,7.40
2023-03-30T03:17:53.251Z,7.40
2023-03-30T03:20:57.404Z,7.41
2023-03-30T03:24:00.625Z,7.42
2023-03-30T03:27:15.559Z,7.43
2023-03-30T03:30:51.041Z,7.44
2023-03-30T03:33:57.164Z,7.45
2023-03-30T03:37:11.958Z,7.46
2023-03-30T03:40:15.687Z,7.46
2023-03-30T03:43:19.428Z,7.47
2023-03-30T03:46:22.571Z,7.48
2023-03-30T03:49:25.743Z,7.49
2023-03-30T03:52:28.925Z,7.50
2023-03-30T03:55:34.872Z,7.50
2023-03-30T03:58:38.422Z,7.50
2023-03-30T04:01:43.127Z,7.51
2023-03-30T04:04:46.565Z,7.51
2023-03-30T04:07:50.156Z,7.52
2023-03-30T04:10:53.274Z,7.53
2023-03-30T04:14:16.749Z,7.52
2023-03-30T04:17:28.710Z,7.52
2023-03-30T04:20:54.797Z,7.53
2023-03-30T04:24:14.169Z,7.53
2023-03-30T04:27:56.879Z,7.53
2023-03-30T04:31:22.808Z,7.53
2023-03-30T04:34:58.117Z,7.55
2023-03-30T04:38:02.298Z,7.55
2023-03-30T04:41:34.277Z,7.55
2023-03-30T04:44:49.258Z,7.56
2023-03-30T04:48:21.981Z,7.56
2023-03-30T04:51:47.674Z,7.57
2023-03-30T04:55:10.135Z,7.57
2023-03-30T04:58:37.682Z,7.59
2023-03-30T05:02:07.298Z,7.59
2023-03-30T05:05:22.431Z,7.59
2023-03-30T05:08:26.036Z,7.58
2023-03-30T05:11:58.561Z,7.60
2023-03-30T05:15:16.573Z,7.61
2023-03-30T05:18:25.677Z,7.63
2023-03-30T05:21:43.227Z,7.64
2023-03-30T05:24:55.304Z,7.64
2023-03-30T05:28:17.246Z,7.66
2023-03-30T05:31:32.705Z,7.66
2023-03-30T05:34:42.141Z,7.67
2023-03-30T05:38:04.438Z,7.69
2023-03-30T05:41:28.165Z,7.71
2023-03-30T05:44:49.432Z,7.74
2023-03-30T05:48:11.249Z,7.78
2023-03-30T05:51:40.475Z,7.82
2023-03-30T05:54:57.785Z,7.86
2023-03-30T05:58:19.972Z,7.90
2023-03-30T06:01:32.309Z,7.95
2023-03-30T06:04:35.523Z,7.99
2023-03-30T06:07:39.570Z,8.02
2023-03-30T06:10:57.171Z,8.05
2023-03-30T06:14:01.645Z,8.08
2023-03-30T06:17:05.392Z,8.11
2023-03-30T06:20:12.531Z,8.14
2023-03-30T06:23:17.733Z,8.18
2023-03-30T06:26:21.165Z,8.21
2023-03-30T06:29:24.767Z,8.24
2023-03-30T06:32:28.389Z,8.28
2023-03-30T06:35:31.931Z,8.31
2023-03-30T06:38:38.883Z,8.34
2023-03-30T06:41:42.751Z,8.37
2023-03-30T06:44:59.528Z,8.41
2023-03-30T06:48:03.272Z,8.42
2023-03-30T06:51:08.853Z,8.44
2023-03-30T06:54:12.608Z,8.46
2023-03-30T06:57:21.369Z,8.48
2023-03-30T07:00:24.588Z,8.48
2023-03-30T07:04:07.451Z,8.50
2023-03-30T07:07:32.334Z,8.51
2023-03-30T07:10:35.835Z,8.51
2023-03-30T07:13:40.136Z,8.53
2023-03-30T07:16:43.515Z,8.56
2023-03-30T07:19:46.792Z,8.61
2023-03-30T07:22:50.048Z,8.70
2023-03-30T07:25:53.619Z,8.80
2023-03-30T07:29:01.481Z,8.91
2023-03-30T07:32:05.049Z,9.02
2023-03-30T07:35:09.257Z,9.12
2023-03-30T07:38:14.311Z,9.22
2023-03-30T07:41:21.252Z,9.34
2023-03-30T07:44:29.457Z,9.47
2023-03-30T07:47:33.379Z,9.63
2023-03-30T07:50:36.684Z,9.80
2023-03-30T07:53:40.910Z,9.96
2023-03-30T07:56:52.876Z,10.11
2023-03-30T07:59:56.898Z,10.23
2023-03-30T08:03:34.299Z,10.36
2023-03-30T08:06:38.051Z,10.43
2023-03-30T08:09:41.336Z,10.49
2023-03-30T08:12:44.447Z,10.55
2023-03-30T08:15:47.881Z,10.59
2023-03-30T08:18:54.952Z,10.62
2023-03-30T08:21:58.202Z,10.64
2023-03-30T08:25:01.309Z,10.67
2023-03-30T08:28:06.076Z,10.69
2023-03-30T08:31:10.963Z,10.73
2023-03-30T08:34:15.630Z,10.77
2023-03-30T08:37:19.459Z,10.80
2023-03-30T08:40:23.402Z,10.82
2023-03-30T08:43:49.711Z,10.83
2023-03-30T08:46:54.287Z,10.88
2023-03-30T08:50:09.576Z,10.99
2023-03-30T08:53:12.967Z,11.13
2023-03-30T08:56:23.946Z,11.24
2023-03-30T08:59:56.535Z,11.31
2023-03-30T09:03:06.289Z,11.42
2023-03-30T09:06:44.852Z,11.58
2023-03-30T09:09:51.885Z,11.80
2023-03-30T09:12:59.987Z,11.99
2023-03-30T09:16:09.706Z,12.15
2023-03-30T09:19:22.724Z,12.27
2023-03-30T09:22:33.312Z,12.42
2023-03-30T09:25:44.897Z,12.55
2023-03-30T09:28:53.510Z,12.73
2023-03-30T09:32:25.766Z,12.96
2023-03-30T09:36:07.747Z,13.22
2023-03-30T09:39:19.722Z,13.48
2023-03-30T09:42:50.970Z,13.66
2023-03-30T09:45:56.912Z,13.93
2023-03-30T09:49:14.504Z,14.10
2023-03-30T09:52:24.266Z,14.12
2023-03-30T09:55:29.838Z,14.04
2023-03-30T09:58:34.648Z,13.92
2023-03-30T10:01:38.675Z,13.81
2023-03-30T10:04:53.842Z,13.74
2023-03-30T10:08:00.132Z,13.81
2023-03-30T10:11:06.224Z,13.84
2023-03-30T10:14:23.813Z,13.76
2023-03-30T10:17:27.521Z,13.65
2023-03-30T10:20:39.447Z,13.54
2023-03-30T10:23:58.858Z,13.46
2023-03-30T10:27:13.490Z,13.46
2023-03-30T10:30:25.007Z,13.48
2023-03-30T10:33:30.509Z,13.55
2023-03-30T10:36:39.447Z,13.65
2023-03-30T10:39:47.154Z,13.89
2023-03-30T10:42:55.688Z,14.12
2023-03-30T10:46:18.833Z,14.33
2023-03-30T10:49:42.339Z,14.59
2023-03-30T10:53:06.869Z,14.84
2023-03-30T10:56:15.829Z,15.09
2023-03-30T10:59:28.291Z,15.34
2023-03-30T11:03:02.319Z,15.57
2023-03-30T11:06:22.077Z,15.77
2023-03-30T11:09:32.274Z,15.93
2023-03-30T11:12:41.652Z,15.99
2023-03-30T11:15:57.408Z,15.98
2023-03-30T11:19:07.242Z,15.88
2023-03-30T11:22:38.823Z,15.71
2023-03-30T11:26:08.650Z,15.50
2023-03-30T11:29:24.533Z,15.22
2023-03-30T11:32:37.026Z,14.97
2023-03-30T11:35:51.173Z,14.77
2023-03-30T11:39:29.097Z,14.61
2023-03-30T11:42:36.555Z,14.44
2023-03-30T11:46:04.104Z,14.32
2023-03-30T11:56:22.613Z,14.08
2023-03-30T11:59:35.211Z,14.02
2023-03-30T12:02:44.436Z,13.98
2023-03-30T12:06:00.461Z,13.95
2023-03-30T12:09:24.988Z,13.92
2023-03-30T12:12:36.423Z,13.90
2023-03-30T12:15:51.380Z,13.84
2023-03-30T12:19:12.059Z,13.78
2023-03-30T12:22:20.946Z,13.71
2023-03-30T12:25:35.999Z,13.62
2023-03-30T12:32:18.837Z,13.45
2023-03-30T12:35:49.760Z,13.37
2023-03-30T12:38:58.050Z,13.29
2023-03-30T12:42:07.138Z,13.22
2023-03-30T12:45:13.146Z,13.16
2023-03-30T12:48:43.046Z,13.12
2023-03-30T12:51:49.636Z,13.09
2023-03-30T12:55:11.371Z,13.08
2023-03-30T12:58:46.966Z,13.09
2023-03-30T13:02:30.804Z,13.10
2023-03-30T13:05:38.936Z,13.09
2023-03-30T13:08:42.835Z,13.09
2023-03-30T13:12:07.964Z,13.08
2023-03-30T13:15:17.164Z,13.07
2023-03-30T13:18:29.216Z,13.06
2023-03-30T13:21:47.796Z,13.05
2023-03-30T13:24:58.104Z,13.04
2023-03-30T13:28:44.642Z,13.03
2023-03-30T13:31:59.259Z,13.02
2023-03-30T13:35:09.929Z,13.00
2023-03-30T13:38:31.568Z,12.99
2023-03-30T13:41:46.658Z,12.98
2023-03-30T13:45:16.948Z,12.97
2023-03-30T13:48:47.108Z,12.96
2023-03-30T13:51:51.822Z,12.96
2023-03-30T13:54:55.151Z,12.96
2023-03-30T13:58:16.256Z,12.97
2023-03-30T14:01:22.621Z,12.97
2023-03-30T14:04:34.427Z,12.99
2023-03-30T14:07:43.355Z,13.01
2023-03-30T14:10:51.811Z,13.02
2023-03-30T14:13:55.768Z,13.05
2023-03-30T14:17:01.755Z,13.07
2023-03-30T14:20:21.238Z,13.09
2023-03-30T14:23:38.756Z,13.11
2023-03-30T14:26:42.064Z,13.13
2023-03-30T14:29:49.652Z,13.13
2023-03-30T14:33:06.187Z,13.13
2023-03-30T14:36:12.636Z,13.12
2023-03-30T14:39:18.848Z,13.11
2023-03-30T14:42:31.123Z,13.10
2023-03-30T14:45:34.498Z,13.08
2023-03-30T14:48:41.910Z,13.05
2023-03-30T14:51:48.821Z,13.01
2023-03-30T14:55:02.522Z,12.96
2023-03-30T14:58:15.143Z,12.93
2023-03-30T15:01:25.964Z,12.88
2023-03-30T15:04:34.208Z,12.82
2023-03-30T15:07:37.556Z,12.78
2023-03-30T15:10:52.046Z,12.73
2023-03-30T15:14:04.069Z,12.68
2023-03-30T15:17:20.905Z,12.63
2023-03-30T15:20:29.840Z,12.58
2023-03-30T15:23:41.965Z,12.53
2023-03-30T15:26:49.014Z,12.50
2023-03-30T15:29:52.311Z,12.45
2023-03-30T15:32:56.950Z,12.40
2023-03-30T15:36:08.022Z,12.36
2023-03-30T15:39:24.008Z,12.31
2023-03-30T15:42:33.576Z,12.27
2023-03-30T15:45:37.237Z,12.22
2023-03-30T15:48:47.395Z,12.19
2023-03-30T15:51:53.747Z,12.15
2023-03-30T15:54:57.081Z,12.12
2023-03-30T15:58:00.434Z,12.07
2023-03-30T16:01:06.832Z,12.03
2023-03-30T16:04:14.389Z,11.97
2023-03-30T16:07:20.878Z,11.91
2023-03-30T16:10:32.387Z,11.87
2023-03-30T16:13:44.324Z,11.84
2023-03-30T16:16:48.582Z,11.80
2023-03-30T16:19:51.930Z,11.76
2023-03-30T16:22:59.489Z,11.73
2023-03-30T16:26:03.324Z,11.71
2023-03-30T16:29:20.093Z,11.68
2023-03-30T16:32:23.382Z,11.66
2023-03-30T16:35:29.098Z,11.65
2023-03-30T16:38:32.282Z,11.61
2023-03-30T16:41:35.941Z,11.59
2023-03-30T16:44:39.126Z,11.56
2023-03-30T16:47:42.367Z,11.52
2023-03-30T16:50:50.981Z,11.48
2023-03-30T16:53:54.186Z,11.45
2023-03-30T16:56:57.505Z,11.41
2023-03-30T17:00:03.641Z,11.38
2023-03-30T17:03:07.457Z,11.35
2023-03-30T17:06:10.706Z,11.31
2023-03-30T17:09:17.180Z,11.28
2023-03-30T17:12:20.810Z,11.25
2023-03-30T17:15:25.038Z,11.21
2023-03-30T17:18:29.163Z,11.19
2023-03-30T17:21:32.569Z,11.17
2023-03-30T17:24:36.069Z,11.16
2023-03-30T17:27:40.065Z,11.15
2023-03-30T17:30:43.336Z,11.14
2023-03-30T17:33:47.959Z,11.12
2023-03-30T17:36:51.192Z,11.10
2023-03-30T17:39:54.328Z,11.08
2023-03-30T17:42:57.551Z,11.07
2023-03-30T17:46:01.591Z,11.06
2023-03-30T17:49:04.701Z,11.06
2023-03-30T17:52:07.793Z,11.06
2023-03-30T17:55:10.879Z,11.05
2023-03-30T17:58:24.391Z,11.06
2023-03-30T18:01:27.703Z,11.06
2023-03-30T18:04:30.966Z,11.06
2023-03-30T18:07:34.002Z,11.07
2023-03-30T18:10:39.208Z,11.07
2023-03-30T18:13:42.288Z,11.06
2023-03-30T18:16:45.993Z,11.06
2023-03-30T18:19:49.155Z,11.06
2023-03-30T18:22:52.560Z,11.04
2023-03-30T18:25:55.649Z,11.03
2023-03-30T18:28:58.964Z,11.03
2023-03-30T18:32:03.836Z,11.04
2023-03-30T18:35:07.762Z,11.04
2023-03-30T18:38:12.691Z,11.04
2023-03-30T18:41:15.988Z,11.03
2023-03-30T18:44:19.162Z,11.04
2023-03-30T18:47:23.698Z,11.03
2023-03-30T18:50:29.630Z,11.04
2023-03-30T18:53:33.013Z,11.04
2023-03-30T18:56:37.894Z,11.04
2023-03-30T18:59:41.209Z,11.06
2023-03-30T19:02:44.900Z,11.06
2023-03-30T19:05:49.443Z,11.06
2023-03-30T19:08:52.630Z,11.07
2023-03-30T19:11:56.372Z,11.06
2023-03-30T19:14:59.476Z,11.07
2023-03-30T19:18:03.899Z,11.08
2023-03-30T19:21:07.264Z,11.08
2023-03-30T19:24:12.631Z,11.09
2023-03-30T19:27:15.844Z,11.08
2023-03-30T19:30:21.175Z,11.07
2023-03-30T19:33:24.353Z,11.08
2023-03-30T19:36:27.508Z,11.08
2023-03-30T19:39:31.007Z,11.08
2023-03-30T19:42:35.418Z,11.07
2023-03-30T19:45:39.105Z,11.06
2023-03-30T19:48:42.229Z,11.06
2023-03-30T19:51:45.580Z,11.05
2023-03-30T19:54:48.923Z,11.04
2023-03-30T19:57:52.076Z,11.03
2023-03-30T20:00:55.562Z,11.02
2023-03-30T20:03:59.663Z,11.01
2023-03-30T20:07:02.978Z,11.01
2023-03-30T20:10:08.923Z,10.99
2023-03-30T20:13:12.175Z,10.98
2023-03-30T20:16:22.974Z,10.98
2023-03-30T20:19:29.809Z,10.97
2023-03-30T20:22:35.522Z,10.97
2023-03-30T20:25:40.484Z,10.97
2023-03-30T20:28:43.822Z,10.97
2023-03-30T20:31:46.978Z,10.96
2023-03-30T20:34:50.135Z,10.95
2023-03-30T20:37:53.212Z,10.94
2023-03-30T20:40:58.136Z,10.93
2023-03-30T20:44:03.237Z,10.92
2023-03-30T20:47:08.881Z,10.91
2023-03-30T20:50:12.281Z,10.91
2023-03-30T20:53:17.026Z,10.90
2023-03-30T20:56:20.141Z,10.90
2023-03-30T20:59:23.541Z,10.89
2023-03-30T21:02:27.391Z,10.89
2023-03-30T21:05:31.572Z,10.89
2023-03-30T21:08:35.628Z,10.89
2023-03-30T21:11:39.480Z,10.89
2023-03-30T21:14:42.535Z,10.90
2023-03-30T21:17:45.642Z,10.90
2023-03-30T21:20:49.010Z,10.89
2023-03-30T21:23:52.126Z,10.89
2023-03-30T21:26:55.520Z,10.88
2023-03-30T21:29:58.775Z,10.88
2023-03-30T21:33:02.490Z,10.87
2023-03-30T21:36:06.491Z,10.86
2023-03-30T21:39:09.970Z,10.85
2023-03-30T21:42:13.133Z,10.85
2023-03-30T21:45:17.870Z,10.84
2023-03-30T21:48:21.370Z,10.83
2023-03-30T21:51:29.764Z,10.82
2023-03-30T21:54:32.936Z,10.82
2023-03-30T21:57:36.049Z,10.82
2023-03-30T22:00:39.460Z,10.83
2023-03-30T22:03:43.053Z,10.83
2023-03-30T22:06:46.678Z,10.85
2023-03-30T22:09:49.719Z,10.87
2023-03-30T22:12:52.845Z,10.87
2023-03-30T22:16:18.795Z,10.87
2023-03-30T22:19:29.040Z,10.86
2023-03-30T22:22:32.163Z,10.86
2023-03-30T22:25:35.536Z,10.86
2023-03-30T22:28:39.334Z,10.85
2023-03-30T22:31:42.437Z,10.85
2023-03-30T22:34:45.619Z,10.86
2023-03-30T22:37:48.688Z,10.86
2023-03-30T22:40:51.746Z,10.87
2023-03-30T22:43:56.932Z,10.87
2023-03-30T22:47:00.325Z,10.88
2023-03-30T22:50:04.138Z,10.89
2023-03-30T22:53:07.519Z,10.90
2023-03-30T22:56:11.803Z,10.90
2023-03-30T22:59:15.466Z,10.91
2023-03-30T23:02:18.736Z,10.92
2023-03-30T23:05:21.847Z,10.92
2023-03-30T23:08:25.171Z,10.92
2023-03-30T23:11:29.124Z,10.92
2023-03-30T23:14:32.356Z,10.91
2023-03-30T23:17:35.857Z,10.90
2023-03-30T23:20:39.123Z,10.89
2023-03-30T23:23:42.403Z,10.89
2023-03-30T23:26:45.542Z,10.89
2023-03-30T23:29:49.697Z,10.88
2023-03-30T23:32:52.865Z,10.88
2023-03-30T23:35:56.037Z,10.87
2023-03-30T23:38:59.096Z,10.86
2023-03-30T23:42:02.248Z,10.87
2023-03-30T23:45:06.234Z,10.85
2023-03-30T23:48:09.436Z,10.84
2023-03-30T23:51:12.539Z,10.84
2023-03-30T23:54:16.212Z,10.84
2023-03-30T23:57:20.459Z,10.83
